sensor_id;sensor_type;location;lat;lon;timestamp;P1;durP1;ratioP1;P2;durP2;ratioP2
75584;SDS011;64162;53.508;10.476;2024-03-22T00:00:14;8.77;;;4.40;;
75584;SDS011;64162;53.508;10.476;2024-03-22T00:02:40;13.98;;;6.07;;
75584;SDS011;64162;53.508;10.476;2024-03-22T00:05:06;14.88;;;5.65;;
75584;SDS011;64162;53.508;10.476;2024-03-22T00:07:32;12.93;;;5.43;;
75584;SDS011;64162;53.508;10.476;2024-03-22T00:09:57;12.70;;;5.55;;
75584;SDS011;64162;53.508;10.476;2024-03-22T00:12:23;9.73;;;4.68;;
75584;SDS011;64162;53.508;10.476;2024-03-22T00:14:48;14.23;;;5.95;;
75584;SDS011;64162;53.508;10.476;2024-03-22T00:17:16;14.30;;;6.95;;
75584;SDS011;64162;53.508;10.476;2024-03-22T00:19:42;10.50;;;5.13;;
75584;SDS011;64162;53.508;10.476;2024-03-22T00:22:07;12.80;;;6.13;;
75584;SDS011;64162;53.508;10.476;2024-03-22T00:24:33;16.58;;;5.72;;
75584;SDS011;64162;53.508;10.476;2024-03-22T00:26:58;9.38;;;5.38;;
75584;SDS011;64162;53.508;10.476;2024-03-22T00:29:24;12.60;;;5.75;;
75584;SDS011;64162;53.508;10.476;2024-03-22T00:31:51;10.30;;;5.50;;
75584;SDS011;64162;53.508;10.476;2024-03-22T00:34:17;16.00;;;6.47;;
75584;SDS011;64162;53.508;10.476;2024-03-22T00:36:42;11.90;;;6.07;;
75584;SDS011;64162;53.508;10.476;2024-03-22T00:39:08;13.65;;;6.13;;
75584;SDS011;64162;53.508;10.476;2024-03-22T00:41:34;12.13;;;5.95;;
75584;SDS011;64162;53.508;10.476;2024-03-22T00:43:59;12.13;;;5.68;;
75584;SDS011;64162;53.508;10.476;2024-03-22T00:46:25;14.40;;;6.53;;
75584;SDS011;64162;53.508;10.476;2024-03-22T00:48:50;15.75;;;6.55;;
75584;SDS011;64162;53.508;10.476;2024-03-22T00:51:16;10.57;;;5.78;;
75584;SDS011;64162;53.508;10.476;2024-03-22T00:53:41;17.02;;;6.45;;
75584;SDS011;64162;53.508;10.476;2024-03-22T00:56:07;13.10;;;6.43;;
75584;SDS011;64162;53.508;10.476;2024-03-22T00:58:33;14.13;;;6.88;;
75584;SDS011;64162;53.508;10.476;2024-03-22T01:00:58;13.27;;;6.88;;
75584;SDS011;64162;53.508;10.476;2024-03-22T01:03:24;13.63;;;6.53;;
75584;SDS011;64162;53.508;10.476;2024-03-22T01:05:49;12.65;;;6.38;;
75584;SDS011;64162;53.508;10.476;2024-03-22T01:08:15;13.35;;;6.68;;
75584;SDS011;64162;53.508;10.476;2024-03-22T01:10:41;13.23;;;5.95;;
75584;SDS011;64162;53.508;10.476;2024-03-22T01:13:07;12.15;;;6.22;;
75584;SDS011;64162;53.508;10.476;2024-03-22T01:15:32;12.85;;;5.82;;
75584;SDS011;64162;53.508;10.476;2024-03-22T01:17:58;11.48;;;6.60;;
75584;SDS011;64162;53.508;10.476;2024-03-22T01:20:24;13.38;;;6.50;;
75584;SDS011;64162;53.508;10.476;2024-03-22T01:22:49;15.13;;;6.78;;
75584;SDS011;64162;53.508;10.476;2024-03-22T01:25:15;13.75;;;6.82;;
75584;SDS011;64162;53.508;10.476;2024-03-22T01:27:41;12.75;;;6.90;;
75584;SDS011;64162;53.508;10.476;2024-03-22T01:30:06;15.13;;;6.70;;
75584;SDS011;64162;53.508;10.476;2024-03-22T01:32:32;12.45;;;6.78;;
75584;SDS011;64162;53.508;10.476;2024-03-22T01:34:58;13.77;;;6.78;;
75584;SDS011;64162;53.508;10.476;2024-03-22T01:37:23;10.45;;;5.75;;
75584;SDS011;64162;53.508;10.476;2024-03-22T01:39:49;12.23;;;6.72;;
75584;SDS011;64162;53.508;10.476;2024-03-22T01:42:15;12.45;;;6.60;;
75584;SDS011;64162;53.508;10.476;2024-03-22T01:44:40;15.00;;;7.95;;
75584;SDS011;64162;53.508;10.476;2024-03-22T01:47:06;17.55;;;6.90;;
75584;SDS011;64162;53.508;10.476;2024-03-22T01:49:32;13.15;;;6.90;;
75584;SDS011;64162;53.508;10.476;2024-03-22T01:51:58;13.82;;;6.82;;
75584;SDS011;64162;53.508;10.476;2024-03-22T01:54:23;19.95;;;8.30;;
75584;SDS011;64162;53.508;10.476;2024-03-22T01:56:49;18.20;;;7.22;;
75584;SDS011;64162;53.508;10.476;2024-03-22T01:59:15;16.45;;;7.97;;
75584;SDS011;64162;53.508;10.476;2024-03-22T02:01:41;13.35;;;6.57;;
75584;SDS011;64162;53.508;10.476;2024-03-22T02:04:07;13.95;;;7.57;;
75584;SDS011;64162;53.508;10.476;2024-03-22T02:06:32;14.32;;;6.63;;
75584;SDS011;64162;53.508;10.476;2024-03-22T02:08:58;18.40;;;8.43;;
75584;SDS011;64162;53.508;10.476;2024-03-22T02:11:24;16.23;;;8.95;;
75584;SDS011;64162;53.508;10.476;2024-03-22T02:13:51;17.48;;;8.98;;
75584;SDS011;64162;53.508;10.476;2024-03-22T02:16:16;19.08;;;8.98;;
75584;SDS011;64162;53.508;10.476;2024-03-22T02:18:42;15.98;;;7.75;;
75584;SDS011;64162;53.508;10.476;2024-03-22T02:21:09;18.65;;;8.25;;
75584;SDS011;64162;53.508;10.476;2024-03-22T02:23:36;17.05;;;8.75;;
75584;SDS011;64162;53.508;10.476;2024-03-22T02:26:03;17.55;;;8.98;;
75584;SDS011;64162;53.508;10.476;2024-03-22T02:28:32;16.27;;;8.80;;
75584;SDS011;64162;53.508;10.476;2024-03-22T02:30:59;17.92;;;8.88;;
75584;SDS011;64162;53.508;10.476;2024-03-22T02:33:25;19.65;;;8.75;;
75584;SDS011;64162;53.508;10.476;2024-03-22T02:35:51;19.58;;;9.65;;
75584;SDS011;64162;53.508;10.476;2024-03-22T02:38:17;14.15;;;7.38;;
75584;SDS011;64162;53.508;10.476;2024-03-22T02:40:43;14.45;;;7.80;;
75584;SDS011;64162;53.508;10.476;2024-03-22T02:43:10;16.25;;;8.85;;
75584;SDS011;64162;53.508;10.476;2024-03-22T02:45:36;18.95;;;8.07;;
75584;SDS011;64162;53.508;10.476;2024-03-22T02:48:02;15.27;;;8.50;;
75584;SDS011;64162;53.508;10.476;2024-03-22T02:50:32;18.50;;;9.40;;
75584;SDS011;64162;53.508;10.476;2024-03-22T02:52:58;16.05;;;8.48;;
75584;SDS011;64162;53.508;10.476;2024-03-22T02:55:24;20.15;;;9.68;;
75584;SDS011;64162;53.508;10.476;2024-03-22T02:57:50;18.55;;;8.98;;
75584;SDS011;64162;53.508;10.476;2024-03-22T03:00:16;17.63;;;8.52;;
75584;SDS011;64162;53.508;10.476;2024-03-22T03:02:42;15.18;;;8.02;;
75584;SDS011;64162;53.508;10.476;2024-03-22T03:05:07;18.05;;;9.10;;
75584;SDS011;64162;53.508;10.476;2024-03-22T03:07:33;17.33;;;8.77;;
75584;SDS011;64162;53.508;10.476;2024-03-22T03:09:59;14.90;;;7.38;;
75584;SDS011;64162;53.508;10.476;2024-03-22T03:12:25;16.33;;;8.20;;
75584;SDS011;64162;53.508;10.476;2024-03-22T03:14:50;22.65;;;10.27;;
75584;SDS011;64162;53.508;10.476;2024-03-22T03:17:16;21.83;;;10.68;;
75584;SDS011;64162;53.508;10.476;2024-03-22T03:19:41;23.30;;;10.70;;
75584;SDS011;64162;53.508;10.476;2024-03-22T03:22:07;21.05;;;10.43;;
75584;SDS011;64162;53.508;10.476;2024-03-22T03:24:33;22.77;;;10.40;;
75584;SDS011;64162;53.508;10.476;2024-03-22T03:26:58;20.00;;;9.18;;
75584;SDS011;64162;53.508;10.476;2024-03-22T03:29:24;19.50;;;9.82;;
75584;SDS011;64162;53.508;10.476;2024-03-22T03:31:49;27.95;;;11.65;;
75584;SDS011;64162;53.508;10.476;2024-03-22T03:34:15;23.42;;;10.70;;
75584;SDS011;64162;53.508;10.476;2024-03-22T03:36:41;21.67;;;10.95;;
75584;SDS011;64162;53.508;10.476;2024-03-22T03:39:06;24.55;;;10.98;;
75584;SDS011;64162;53.508;10.476;2024-03-22T03:41:32;21.75;;;10.55;;
75584;SDS011;64162;53.508;10.476;2024-03-22T03:43:57;24.70;;;11.50;;
75584;SDS011;64162;53.508;10.476;2024-03-22T03:46:23;27.10;;;11.35;;
75584;SDS011;64162;53.508;10.476;2024-03-22T03:48:48;22.42;;;11.48;;
75584;SDS011;64162;53.508;10.476;2024-03-22T03:51:14;22.35;;;10.43;;
75584;SDS011;64162;53.508;10.476;2024-03-22T03:53:40;24.65;;;11.55;;
75584;SDS011;64162;53.508;10.476;2024-03-22T03:56:05;25.00;;;12.75;;
75584;SDS011;64162;53.508;10.476;2024-03-22T03:58:31;28.42;;;12.15;;
75584;SDS011;64162;53.508;10.476;2024-03-22T04:00:56;27.15;;;11.63;;
75584;SDS011;64162;53.508;10.476;2024-03-22T04:03:22;25.33;;;11.82;;
75584;SDS011;64162;53.508;10.476;2024-03-22T04:05:55;25.83;;;12.48;;
75584;SDS011;64162;53.508;10.476;2024-03-22T04:08:22;24.65;;;11.38;;
75584;SDS011;64162;53.508;10.476;2024-03-22T04:10:51;29.17;;;13.63;;
75584;SDS011;64162;53.508;10.476;2024-03-22T04:13:17;25.48;;;12.48;;
75584;SDS011;64162;53.508;10.476;2024-03-22T04:15:43;29.60;;;13.45;;
75584;SDS011;64162;53.508;10.476;2024-03-22T04:18:08;26.95;;;13.13;;
75584;SDS011;64162;53.508;10.476;2024-03-22T04:20:34;27.05;;;12.85;;
75584;SDS011;64162;53.508;10.476;2024-03-22T04:22:59;25.73;;;13.15;;
75584;SDS011;64162;53.508;10.476;2024-03-22T04:25:25;28.65;;;13.80;;
75584;SDS011;64162;53.508;10.476;2024-03-22T04:27:51;31.10;;;15.27;;
75584;SDS011;64162;53.508;10.476;2024-03-22T04:30:16;29.65;;;13.40;;
75584;SDS011;64162;53.508;10.476;2024-03-22T04:32:42;26.77;;;12.73;;
75584;SDS011;64162;53.508;10.476;2024-03-22T04:35:07;29.73;;;15.02;;
75584;SDS011;64162;53.508;10.476;2024-03-22T04:37:33;25.73;;;12.70;;
75584;SDS011;64162;53.508;10.476;2024-03-22T04:39:59;33.42;;;13.75;;
75584;SDS011;64162;53.508;10.476;2024-03-22T04:42:24;28.67;;;13.35;;
75584;SDS011;64162;53.508;10.476;2024-03-22T04:44:50;31.20;;;14.15;;
75584;SDS011;64162;53.508;10.476;2024-03-22T04:47:15;17.45;;;9.27;;
75584;SDS011;64162;53.508;10.476;2024-03-22T04:49:41;28.13;;;14.43;;
75584;SDS011;64162;53.508;10.476;2024-03-22T04:52:07;29.30;;;13.73;;
75584;SDS011;64162;53.508;10.476;2024-03-22T04:54:32;31.30;;;14.15;;
75584;SDS011;64162;53.508;10.476;2024-03-22T04:56:58;27.50;;;13.75;;
75584;SDS011;64162;53.508;10.476;2024-03-22T04:59:24;28.95;;;13.18;;
75584;SDS011;64162;53.508;10.476;2024-03-22T05:01:50;28.67;;;13.93;;
75584;SDS011;64162;53.508;10.476;2024-03-22T05:04:15;28.92;;;14.05;;
75584;SDS011;64162;53.508;10.476;2024-03-22T05:06:41;32.75;;;15.32;;
75584;SDS011;64162;53.508;10.476;2024-03-22T05:09:06;33.20;;;14.48;;
75584;SDS011;64162;53.508;10.476;2024-03-22T05:11:35;26.55;;;13.05;;
75584;SDS011;64162;53.508;10.476;2024-03-22T05:14:00;30.95;;;13.57;;
75584;SDS011;64162;53.508;10.476;2024-03-22T05:16:26;30.33;;;15.18;;
75584;SDS011;64162;53.508;10.476;2024-03-22T05:18:52;31.08;;;14.32;;
75584;SDS011;64162;53.508;10.476;2024-03-22T05:21:17;31.05;;;14.80;;
75584;SDS011;64162;53.508;10.476;2024-03-22T05:23:43;30.65;;;15.00;;
75584;SDS011;64162;53.508;10.476;2024-03-22T05:26:08;29.58;;;13.48;;
75584;SDS011;64162;53.508;10.476;2024-03-22T05:28:34;30.05;;;13.20;;
75584;SDS011;64162;53.508;10.476;2024-03-22T05:30:59;31.48;;;14.38;;
75584;SDS011;64162;53.508;10.476;2024-03-22T05:33:25;30.42;;;15.07;;
75584;SDS011;64162;53.508;10.476;2024-03-22T05:35:50;33.13;;;14.57;;
75584;SDS011;64162;53.508;10.476;2024-03-22T05:38:16;31.90;;;15.23;;
75584;SDS011;64162;53.508;10.476;2024-03-22T05:40:42;30.42;;;14.95;;
75584;SDS011;64162;53.508;10.476;2024-03-22T05:43:07;35.38;;;15.77;;
75584;SDS011;64162;53.508;10.476;2024-03-22T05:45:33;32.55;;;14.13;;
75584;SDS011;64162;53.508;10.476;2024-03-22T05:47:58;37.08;;;16.30;;
75584;SDS011;64162;53.508;10.476;2024-03-22T05:50:24;32.50;;;14.85;;
75584;SDS011;64162;53.508;10.476;2024-03-22T05:52:49;30.83;;;14.82;;
75584;SDS011;64162;53.508;10.476;2024-03-22T05:55:15;33.33;;;16.30;;
75584;SDS011;64162;53.508;10.476;2024-03-22T05:57:40;32.50;;;16.27;;
75584;SDS011;64162;53.508;10.476;2024-03-22T06:00:06;29.27;;;13.55;;
75584;SDS011;64162;53.508;10.476;2024-03-22T06:02:33;33.03;;;15.27;;
75584;SDS011;64162;53.508;10.476;2024-03-22T06:04:59;35.72;;;16.02;;
75584;SDS011;64162;53.508;10.476;2024-03-22T06:07:24;32.25;;;14.82;;
75584;SDS011;64162;53.508;10.476;2024-03-22T06:09:51;30.27;;;14.45;;
75584;SDS011;64162;53.508;10.476;2024-03-22T06:14:44;32.95;;;15.98;;
75584;SDS011;64162;53.508;10.476;2024-03-22T06:17:10;29.35;;;14.52;;
75584;SDS011;64162;53.508;10.476;2024-03-22T06:19:36;34.17;;;15.18;;
75584;SDS011;64162;53.508;10.476;2024-03-22T06:22:03;39.15;;;17.27;;
75584;SDS011;64162;53.508;10.476;2024-03-22T06:24:28;35.60;;;16.58;;
75584;SDS011;64162;53.508;10.476;2024-03-22T06:26:54;36.58;;;17.33;;
75584;SDS011;64162;53.508;10.476;2024-03-22T06:29:20;31.85;;;14.40;;
75584;SDS011;64162;53.508;10.476;2024-03-22T06:31:46;39.97;;;17.55;;
75584;SDS011;64162;53.508;10.476;2024-03-22T06:34:12;16.73;;;7.45;;
75584;SDS011;64162;53.508;10.476;2024-03-22T06:36:38;33.75;;;16.20;;
75584;SDS011;64162;53.508;10.476;2024-03-22T06:39:03;40.00;;;17.48;;
75584;SDS011;64162;53.508;10.476;2024-03-22T06:41:32;39.83;;;16.95;;
75584;SDS011;64162;53.508;10.476;2024-03-22T06:43:57;35.78;;;14.88;;
75584;SDS011;64162;53.508;10.476;2024-03-22T06:46:23;36.67;;;16.98;;
75584;SDS011;64162;53.508;10.476;2024-03-22T06:48:50;36.65;;;17.67;;
75584;SDS011;64162;53.508;10.476;2024-03-22T06:51:15;42.08;;;17.48;;
75584;SDS011;64162;53.508;10.476;2024-03-22T06:53:41;40.28;;;18.83;;
75584;SDS011;64162;53.508;10.476;2024-03-22T06:56:08;37.00;;;17.05;;
75584;SDS011;64162;53.508;10.476;2024-03-22T06:58:37;36.65;;;16.98;;
75584;SDS011;64162;53.508;10.476;2024-03-22T07:01:05;42.42;;;18.20;;
75584;SDS011;64162;53.508;10.476;2024-03-22T07:03:31;42.00;;;18.08;;
75584;SDS011;64162;53.508;10.476;2024-03-22T07:05:57;38.00;;;16.20;;
75584;SDS011;64162;53.508;10.476;2024-03-22T07:08:26;30.73;;;14.40;;
75584;SDS011;64162;53.508;10.476;2024-03-22T07:10:51;46.10;;;18.77;;
75584;SDS011;64162;53.508;10.476;2024-03-22T07:13:18;40.47;;;17.88;;
75584;SDS011;64162;53.508;10.476;2024-03-22T07:15:44;35.85;;;15.88;;
75584;SDS011;64162;53.508;10.476;2024-03-22T07:18:11;40.85;;;18.42;;
75584;SDS011;64162;53.508;10.476;2024-03-22T07:20:37;38.53;;;17.67;;
75584;SDS011;64162;53.508;10.476;2024-03-22T07:23:02;39.55;;;17.67;;
75584;SDS011;64162;53.508;10.476;2024-03-22T07:25:29;43.15;;;17.40;;
75584;SDS011;64162;53.508;10.476;2024-03-22T07:27:55;43.03;;;18.33;;
75584;SDS011;64162;53.508;10.476;2024-03-22T07:30:21;33.53;;;16.83;;
75584;SDS011;64162;53.508;10.476;2024-03-22T07:32:47;43.33;;;19.27;;
75584;SDS011;64162;53.508;10.476;2024-03-22T07:35:13;41.70;;;19.63;;
75584;SDS011;64162;53.508;10.476;2024-03-22T07:37:38;40.28;;;17.30;;
75584;SDS011;64162;53.508;10.476;2024-03-22T07:40:04;43.05;;;20.13;;
75584;SDS011;64162;53.508;10.476;2024-03-22T07:42:30;43.95;;;19.33;;
75584;SDS011;64162;53.508;10.476;2024-03-22T07:44:57;34.78;;;16.95;;
75584;SDS011;64162;53.508;10.476;2024-03-22T07:47:22;31.05;;;16.20;;
75584;SDS011;64162;53.508;10.476;2024-03-22T07:49:48;43.67;;;18.23;;
75584;SDS011;64162;53.508;10.476;2024-03-22T07:52:13;34.90;;;15.00;;
75584;SDS011;64162;53.508;10.476;2024-03-22T07:54:39;41.03;;;17.48;;
75584;SDS011;64162;53.508;10.476;2024-03-22T07:57:04;45.80;;;20.30;;
75584;SDS011;64162;53.508;10.476;2024-03-22T07:59:30;35.53;;;16.00;;
75584;SDS011;64162;53.508;10.476;2024-03-22T08:01:56;47.65;;;18.98;;
75584;SDS011;64162;53.508;10.476;2024-03-22T08:04:23;42.10;;;18.67;;
75584;SDS011;64162;53.508;10.476;2024-03-22T08:06:50;43.15;;;19.35;;
75584;SDS011;64162;53.508;10.476;2024-03-22T08:09:16;42.63;;;20.77;;
75584;SDS011;64162;53.508;10.476;2024-03-22T08:11:43;45.72;;;20.23;;
75584;SDS011;64162;53.508;10.476;2024-03-22T08:14:09;45.38;;;21.13;;
75584;SDS011;64162;53.508;10.476;2024-03-22T08:16:35;42.67;;;18.17;;
75584;SDS011;64162;53.508;10.476;2024-03-22T08:19:00;45.00;;;19.98;;
75584;SDS011;64162;53.508;10.476;2024-03-22T08:21:26;41.88;;;18.00;;
75584;SDS011;64162;53.508;10.476;2024-03-22T08:23:51;45.38;;;20.17;;
75584;SDS011;64162;53.508;10.476;2024-03-22T08:26:17;46.97;;;20.05;;
75584;SDS011;64162;53.508;10.476;2024-03-22T08:28:44;46.65;;;19.77;;
75584;SDS011;64162;53.508;10.476;2024-03-22T08:31:10;41.50;;;17.50;;
75584;SDS011;64162;53.508;10.476;2024-03-22T08:33:36;48.83;;;20.80;;
75584;SDS011;64162;53.508;10.476;2024-03-22T08:36:02;46.53;;;20.75;;
75584;SDS011;64162;53.508;10.476;2024-03-22T08:38:27;43.78;;;20.20;;
75584;SDS011;64162;53.508;10.476;2024-03-22T08:40:53;46.30;;;21.42;;
75584;SDS011;64162;53.508;10.476;2024-03-22T08:43:19;38.70;;;19.27;;
75584;SDS011;64162;53.508;10.476;2024-03-22T08:45:45;50.47;;;20.83;;
75584;SDS011;64162;53.508;10.476;2024-03-22T08:48:11;40.70;;;18.55;;
75584;SDS011;64162;53.508;10.476;2024-03-22T08:50:36;46.45;;;20.75;;
75584;SDS011;64162;53.508;10.476;2024-03-22T08:53:02;38.58;;;16.90;;
75584;SDS011;64162;53.508;10.476;2024-03-22T08:55:28;44.72;;;19.75;;
75584;SDS011;64162;53.508;10.476;2024-03-22T08:57:54;49.92;;;19.85;;
75584;SDS011;64162;53.508;10.476;2024-03-22T09:00:20;47.35;;;20.95;;
75584;SDS011;64162;53.508;10.476;2024-03-22T09:02:46;44.88;;;19.70;;
75584;SDS011;64162;53.508;10.476;2024-03-22T09:05:12;44.70;;;19.52;;
75584;SDS011;64162;53.508;10.476;2024-03-22T09:07:38;43.42;;;19.50;;
75584;SDS011;64162;53.508;10.476;2024-03-22T09:10:04;45.72;;;20.13;;
75584;SDS011;64162;53.508;10.476;2024-03-22T09:12:31;54.30;;;20.20;;
75584;SDS011;64162;53.508;10.476;2024-03-22T09:14:57;47.75;;;19.15;;
75584;SDS011;64162;53.508;10.476;2024-03-22T09:17:23;44.15;;;18.73;;
75584;SDS011;64162;53.508;10.476;2024-03-22T09:19:48;51.92;;;21.52;;
75584;SDS011;64162;53.508;10.476;2024-03-22T09:22:14;48.33;;;21.13;;
75584;SDS011;64162;53.508;10.476;2024-03-22T09:24:40;45.50;;;20.10;;
75584;SDS011;64162;53.508;10.476;2024-03-22T09:27:06;47.70;;;20.48;;
75584;SDS011;64162;53.508;10.476;2024-03-22T09:29:38;50.53;;;21.05;;
75584;SDS011;64162;53.508;10.476;2024-03-22T09:32:04;45.78;;;18.50;;
75584;SDS011;64162;53.508;10.476;2024-03-22T09:34:30;43.63;;;17.83;;
75584;SDS011;64162;53.508;10.476;2024-03-22T09:36:56;51.50;;;22.10;;
75584;SDS011;64162;53.508;10.476;2024-03-22T09:39:22;50.00;;;20.63;;
75584;SDS011;64162;53.508;10.476;2024-03-22T09:41:48;45.75;;;21.23;;
75584;SDS011;64162;53.508;10.476;2024-03-22T09:44:17;49.17;;;19.30;;
75584;SDS011;64162;53.508;10.476;2024-03-22T09:46:44;51.63;;;20.90;;
75584;SDS011;64162;53.508;10.476;2024-03-22T09:49:12;47.65;;;18.08;;
75584;SDS011;64162;53.508;10.476;2024-03-22T09:51:39;50.97;;;21.30;;
75584;SDS011;64162;53.508;10.476;2024-03-22T09:54:05;49.03;;;19.90;;
75584;SDS011;64162;53.508;10.476;2024-03-22T09:56:31;51.03;;;21.27;;
75584;SDS011;64162;53.508;10.476;2024-03-22T09:59:00;46.13;;;17.90;;
75584;SDS011;64162;53.508;10.476;2024-03-22T10:01:25;50.95;;;21.00;;
75584;SDS011;64162;53.508;10.476;2024-03-22T10:03:52;51.42;;;21.10;;
75584;SDS011;64162;53.508;10.476;2024-03-22T10:06:18;49.53;;;21.40;;
75584;SDS011;64162;53.508;10.476;2024-03-22T10:11:09;22.08;;;11.57;;
75584;SDS011;64162;53.508;10.476;2024-03-22T10:13:35;39.05;;;16.98;;
75584;SDS011;64162;53.508;10.476;2024-03-22T10:16:01;42.92;;;17.98;;
75584;SDS011;64162;53.508;10.476;2024-03-22T10:18:27;41.55;;;16.92;;
75584;SDS011;64162;53.508;10.476;2024-03-22T10:21:00;41.58;;;17.85;;
75584;SDS011;64162;53.508;10.476;2024-03-22T10:23:26;40.33;;;16.60;;
75584;SDS011;64162;53.508;10.476;2024-03-22T10:25:52;42.72;;;18.65;;
75584;SDS011;64162;53.508;10.476;2024-03-22T10:28:17;30.20;;;12.80;;
75584;SDS011;64162;53.508;10.476;2024-03-22T10:30:43;42.97;;;17.60;;
75584;SDS011;64162;53.508;10.476;2024-03-22T10:33:10;33.05;;;14.77;;
75584;SDS011;64162;53.508;10.476;2024-03-22T10:35:36;37.63;;;15.73;;
75584;SDS011;64162;53.508;10.476;2024-03-22T10:38:02;44.40;;;17.27;;
75584;SDS011;64162;53.508;10.476;2024-03-22T10:40:28;39.80;;;18.15;;
75584;SDS011;64162;53.508;10.476;2024-03-22T10:42:54;37.40;;;16.27;;
75584;SDS011;64162;53.508;10.476;2024-03-22T10:45:23;37.92;;;15.75;;
75584;SDS011;64162;53.508;10.476;2024-03-22T10:47:50;40.90;;;17.38;;
75584;SDS011;64162;53.508;10.476;2024-03-22T10:50:20;41.97;;;16.27;;
75584;SDS011;64162;53.508;10.476;2024-03-22T10:52:52;38.38;;;16.13;;
75584;SDS011;64162;53.508;10.476;2024-03-22T10:55:22;33.55;;;15.18;;
75584;SDS011;64162;53.508;10.476;2024-03-22T10:57:59;38.17;;;16.48;;
75584;SDS011;64162;53.508;10.476;2024-03-22T11:00:32;27.58;;;13.18;;
75584;SDS011;64162;53.508;10.476;2024-03-22T11:02:59;21.10;;;9.90;;
75584;SDS011;64162;53.508;10.476;2024-03-22T11:05:28;36.60;;;16.35;;
75584;SDS011;64162;53.508;10.476;2024-03-22T11:08:03;35.10;;;15.40;;
75584;SDS011;64162;53.508;10.476;2024-03-22T11:10:30;26.92;;;11.63;;
75584;SDS011;64162;53.508;10.476;2024-03-22T11:13:07;36.83;;;17.48;;
75584;SDS011;64162;53.508;10.476;2024-03-22T11:15:34;25.40;;;12.30;;
75584;SDS011;64162;53.508;10.476;2024-03-22T11:18:00;31.15;;;13.88;;
75584;SDS011;64162;53.508;10.476;2024-03-22T11:20:29;39.47;;;15.13;;
75584;SDS011;64162;53.508;10.476;2024-03-22T11:22:56;31.40;;;14.45;;
75584;SDS011;64162;53.508;10.476;2024-03-22T11:27:48;32.65;;;15.02;;
75584;SDS011;64162;53.508;10.476;2024-03-22T11:30:14;35.05;;;14.93;;
75584;SDS011;64162;53.508;10.476;2024-03-22T11:32:41;31.38;;;12.95;;
75584;SDS011;64162;53.508;10.476;2024-03-22T11:35:11;28.42;;;13.85;;
75584;SDS011;64162;53.508;10.476;2024-03-22T11:37:41;31.48;;;14.70;;
75584;SDS011;64162;53.508;10.476;2024-03-22T11:40:10;27.10;;;13.35;;
75584;SDS011;64162;53.508;10.476;2024-03-22T11:42:38;24.25;;;11.50;;
75584;SDS011;64162;53.508;10.476;2024-03-22T11:45:05;26.50;;;12.20;;
75584;SDS011;64162;53.508;10.476;2024-03-22T11:47:33;23.38;;;10.35;;
75584;SDS011;64162;53.508;10.476;2024-03-22T11:49:59;17.77;;;8.82;;
75584;SDS011;64162;53.508;10.476;2024-03-22T11:52:25;17.50;;;8.60;;
75584;SDS011;64162;53.508;10.476;2024-03-22T11:54:51;18.95;;;8.27;;
75584;SDS011;64162;53.508;10.476;2024-03-22T11:57:21;21.08;;;9.35;;
75584;SDS011;64162;53.508;10.476;2024-03-22T11:59:47;20.33;;;9.32;;
75584;SDS011;64162;53.508;10.476;2024-03-22T12:02:13;19.80;;;9.70;;
75584;SDS011;64162;53.508;10.476;2024-03-22T12:04:42;20.00;;;9.77;;
75584;SDS011;64162;53.508;10.476;2024-03-22T12:07:13;15.40;;;6.10;;
75584;SDS011;64162;53.508;10.476;2024-03-22T12:09:40;19.00;;;9.15;;
75584;SDS011;64162;53.508;10.476;2024-03-22T12:12:07;18.90;;;9.05;;
75584;SDS011;64162;53.508;10.476;2024-03-22T12:14:34;17.73;;;8.60;;
75584;SDS011;64162;53.508;10.476;2024-03-22T12:17:01;16.92;;;6.93;;
75584;SDS011;64162;53.508;10.476;2024-03-22T12:19:27;13.77;;;6.43;;
75584;SDS011;64162;53.508;10.476;2024-03-22T12:21:53;18.30;;;8.10;;
75584;SDS011;64162;53.508;10.476;2024-03-22T12:24:19;14.60;;;6.80;;
75584;SDS011;64162;53.508;10.476;2024-03-22T12:26:45;13.73;;;6.78;;
75584;SDS011;64162;53.508;10.476;2024-03-22T12:29:12;14.38;;;7.95;;
75584;SDS011;64162;53.508;10.476;2024-03-22T12:31:38;11.80;;;6.65;;
75584;SDS011;64162;53.508;10.476;2024-03-22T12:34:04;12.65;;;6.78;;
75584;SDS011;64162;53.508;10.476;2024-03-22T12:36:29;13.90;;;7.50;;
75584;SDS011;64162;53.508;10.476;2024-03-22T12:38:55;15.95;;;7.68;;
75584;SDS011;64162;53.508;10.476;2024-03-22T12:41:21;15.02;;;7.00;;
75584;SDS011;64162;53.508;10.476;2024-03-22T12:43:46;14.63;;;7.95;;
75584;SDS011;64162;53.508;10.476;2024-03-22T12:46:12;13.75;;;7.18;;
75584;SDS011;64162;53.508;10.476;2024-03-22T12:48:37;14.35;;;7.57;;
75584;SDS011;64162;53.508;10.476;2024-03-22T12:51:03;15.73;;;7.18;;
75584;SDS011;64162;53.508;10.476;2024-03-22T12:53:29;13.15;;;6.35;;
75584;SDS011;64162;53.508;10.476;2024-03-22T12:55:54;13.45;;;6.70;;
75584;SDS011;64162;53.508;10.476;2024-03-22T12:58:20;11.10;;;6.22;;
75584;SDS011;64162;53.508;10.476;2024-03-22T13:00:45;14.05;;;6.40;;
75584;SDS011;64162;53.508;10.476;2024-03-22T13:03:12;11.73;;;6.68;;
75584;SDS011;64162;53.508;10.476;2024-03-22T13:05:40;12.00;;;6.20;;
75584;SDS011;64162;53.508;10.476;2024-03-22T13:08:05;16.40;;;6.25;;
75584;SDS011;64162;53.508;10.476;2024-03-22T13:10:31;12.25;;;5.88;;
75584;SDS011;64162;53.508;10.476;2024-03-22T13:12:57;9.25;;;5.57;;
75584;SDS011;64162;53.508;10.476;2024-03-22T13:15:23;11.80;;;5.90;;
75584;SDS011;64162;53.508;10.476;2024-03-22T13:17:48;10.93;;;5.72;;
75584;SDS011;64162;53.508;10.476;2024-03-22T13:20:14;12.40;;;5.90;;
75584;SDS011;64162;53.508;10.476;2024-03-22T13:25:06;10.25;;;5.45;;
75584;SDS011;64162;53.508;10.476;2024-03-22T13:27:34;10.05;;;5.30;;
75584;SDS011;64162;53.508;10.476;2024-03-22T13:30:00;10.85;;;6.30;;
75584;SDS011;64162;53.508;10.476;2024-03-22T13:32:26;12.55;;;5.90;;
75584;SDS011;64162;53.508;10.476;2024-03-22T13:34:52;12.52;;;5.85;;
75584;SDS011;64162;53.508;10.476;2024-03-22T13:37:18;13.60;;;5.85;;
75584;SDS011;64162;53.508;10.476;2024-03-22T13:39:47;11.85;;;6.07;;
75584;SDS011;64162;53.508;10.476;2024-03-22T13:42:14;10.88;;;5.43;;
75584;SDS011;64162;53.508;10.476;2024-03-22T13:44:39;9.48;;;5.43;;
75584;SDS011;64162;53.508;10.476;2024-03-22T13:47:05;12.38;;;6.05;;
75584;SDS011;64162;53.508;10.476;2024-03-22T13:49:30;9.38;;;5.10;;
75584;SDS011;64162;53.508;10.476;2024-03-22T13:51:57;10.13;;;5.75;;
75584;SDS011;64162;53.508;10.476;2024-03-22T13:54:24;11.68;;;6.07;;
75584;SDS011;64162;53.508;10.476;2024-03-22T13:56:50;11.27;;;6.32;;
75584;SDS011;64162;53.508;10.476;2024-03-22T13:59:15;9.65;;;5.35;;
75584;SDS011;64162;53.508;10.476;2024-03-22T14:01:41;11.73;;;5.32;;
75584;SDS011;64162;53.508;10.476;2024-03-22T14:04:10;10.45;;;5.80;;
75584;SDS011;64162;53.508;10.476;2024-03-22T14:06:37;8.38;;;5.28;;
75584;SDS011;64162;53.508;10.476;2024-03-22T14:09:03;8.82;;;4.40;;
75584;SDS011;64162;53.508;10.476;2024-03-22T14:11:30;7.40;;;4.25;;
75584;SDS011;64162;53.508;10.476;2024-03-22T14:16:22;6.55;;;4.20;;
75584;SDS011;64162;53.508;10.476;2024-03-22T14:18:48;7.35;;;4.60;;